createdAt,value
2018-05-02T00:48:04.129Z,94837.58
2018-05-02T00:50:38.175Z,94845.15
2018-05-02T00:53:11.434Z,94840.74
2018-05-02T00:55:44.707Z,94837.58
2018-05-02T00:58:17.944Z,94827.98
2018-05-02T02:31:52.672Z,94820.59
2018-05-02T02:34:26.687Z,94818.75
2018-05-02T02:37:00.731Z,94812.00
2018-05-02T02:39:33.991Z,94812.48
2018-05-02T02:42:08.036Z,94818.14
2018-05-02T02:44:41.301Z,94817.62
2018-05-02T03:45:56.474Z,94749.19
2018-05-02T03:48:29.721Z,94747.05
2018-05-02T03:51:02.999Z,94745.73
2018-05-02T03:53:36.251Z,94746.64
2018-05-02T03:56:09.524Z,94744.91
2018-05-02T03:58:42.777Z,94748.49
2018-05-02T04:30:57.445Z,94770.29
2018-05-02T04:33:31.498Z,94762.52
2018-05-02T04:36:04.768Z,94758.19
2018-05-02T04:38:38.811Z,94752.45
2018-05-02T04:41:12.925Z,94749.81
2018-05-02T04:43:46.212Z,94744.18
2018-05-02T04:46:19.462Z,94746.12
2018-05-02T04:48:52.781Z,94741.39
2018-05-02T04:51:26.038Z,94741.91
2018-05-02T04:53:59.310Z,94734.34
2018-05-02T04:56:32.578Z,94729.70
2018-05-02T04:59:05.852Z,94730.81
2018-05-02T05:01:39.116Z,94731.00
2018-05-02T05:04:12.404Z,94729.89
2018-05-02T05:06:45.664Z,94726.83
2018-05-02T05:09:18.959Z,94738.08
2018-05-02T05:11:52.211Z,94745.45
2018-05-02T05:14:25.533Z,94763.77
2018-05-02T05:16:58.758Z,94765.69
2018-05-02T05:19:32.442Z,94764.86
2018-05-02T05:22:05.699Z,94764.33
2018-05-02T05:24:40.048Z,94766.97
2018-05-02T05:27:13.300Z,94768.66
2018-05-02T05:29:46.575Z,94776.14
2018-05-02T05:32:19.836Z,94759.39
2018-05-02T05:34:53.132Z,94759.28
2018-05-02T05:37:26.383Z,94763.27
2018-05-02T05:40:00.545Z,94749.78
2018-05-02T05:42:33.796Z,94747.42
2018-05-02T05:45:07.080Z,94754.82
2018-05-02T05:47:40.331Z,94751.86
2018-05-02T05:50:13.604Z,94749.00
2018-05-02T05:52:46.908Z,94749.08
2018-05-02T05:55:20.181Z,94751.73
2018-05-02T05:57:54.199Z,94745.47
2018-05-02T06:00:27.477Z,94751.80
2018-05-02T06:03:01.513Z,94760.16
2018-05-02T06:05:34.780Z,94761.48
2018-05-02T06:08:08.803Z,94764.11
2018-05-02T06:10:42.080Z,94755.52
2018-05-02T06:13:16.103Z,94747.20
2018-05-02T06:15:50.224Z,94731.67
2018-05-02T06:18:24.250Z,94736.99
2018-05-02T06:20:57.535Z,94726.23
2018-05-02T06:23:31.570Z,94715.68
2018-05-02T06:26:04.897Z,94713.56
2018-05-02T06:28:38.089Z,94713.64
2018-05-02T07:00:54.493Z,94729.83
2018-05-02T07:03:27.651Z,94727.75
2018-05-02T07:06:01.702Z,94723.86
2018-05-02T07:08:34.963Z,94722.75
2018-05-02T07:11:08.999Z,94723.25
2018-05-02T07:13:42.256Z,94721.13
2018-05-02T08:01:45.931Z,94682.80
2018-05-02T08:04:19.184Z,94694.52
2018-05-02T08:06:53.236Z,94683.48
2018-05-02T08:09:26.491Z,94683.17
2018-05-02T08:12:00.531Z,94681.31
2018-05-02T08:14:33.792Z,94673.91
2018-05-02T09:02:37.104Z,94656.71
2018-05-02T09:05:10.368Z,94653.05
2018-05-02T09:07:43.646Z,94640.91
2018-05-02T09:10:16.899Z,94635.02
2018-05-02T09:12:50.178Z,94642.19
2018-05-02T10:00:54.835Z,94601.23
2018-05-02T10:03:28.098Z,94618.66
2018-05-02T10:06:01.352Z,94610.63
2018-05-02T10:08:35.388Z,94602.65
2018-05-02T10:11:08.647Z,94592.45
2018-05-02T10:13:42.681Z,94585.81
2018-05-02T11:01:46.241Z,94580.18
2018-05-02T11:04:19.499Z,94580.48
2018-05-02T11:06:52.780Z,94584.55
2018-05-02T11:09:26.036Z,94591.66
2018-05-02T11:11:59.323Z,94587.86
2018-05-02T11:14:32.576Z,94590.99
2018-05-02T12:02:37.194Z,94548.73
2018-05-02T12:05:10.396Z,94546.49
2018-05-02T12:07:43.652Z,94537.82
2018-05-02T12:10:16.920Z,94531.32
2018-05-02T12:12:50.182Z,94515.91
2018-05-02T13:01:00.112Z,94464.89
2018-05-02T13:03:33.393Z,94474.83
2018-05-02T13:06:06.659Z,94467.18
2018-05-02T13:08:39.911Z,94461.86
2018-05-02T13:11:13.179Z,94467.38
2018-05-02T13:13:46.440Z,94449.05
2018-05-02T14:01:50.675Z,94412.75
2018-05-02T14:04:23.948Z,94406.85
2018-05-02T14:06:57.220Z,94411.22
2018-05-02T14:09:30.477Z,94400.27
2018-05-02T14:12:03.747Z,94401.97
2018-05-02T14:14:37.003Z,94404.38
2018-05-02T14:46:28.284Z,94410.03
2018-05-02T14:49:01.555Z,94415.55
2018-05-02T14:51:34.815Z,94416.86
2018-05-02T14:54:08.088Z,94412.88
2018-05-02T14:56:41.348Z,94406.03
2018-05-02T14:59:15.395Z,94414.49
2018-05-02T15:31:05.367Z,94408.55
2018-05-02T15:33:38.647Z,94406.55
2018-05-02T15:36:11.903Z,94403.36
2018-05-02T15:38:45.185Z,94406.73
2018-05-02T15:41:18.442Z,94404.70
2018-05-02T15:43:51.726Z,94406.20
2018-05-02T15:46:24.996Z,94408.76
2018-05-02T15:49:01.022Z,94401.14
2018-05-02T15:51:35.077Z,94407.67
2018-05-02T15:54:08.379Z,94411.44
2018-05-02T15:56:41.688Z,94408.48
2018-05-02T15:59:14.961Z,94404.30
2018-05-02T16:01:49.001Z,94399.46
2018-05-02T16:04:22.247Z,94398.79
2018-05-02T16:06:55.536Z,94401.97
2018-05-02T16:09:28.800Z,94403.62
2018-05-02T16:12:02.082Z,94405.70
2018-05-02T16:14:35.335Z,94409.42
2018-05-02T16:17:09.421Z,94407.31
2018-05-02T16:19:42.688Z,94409.63
2018-05-02T16:22:15.963Z,94407.89
2018-05-02T16:24:49.230Z,94403.21
2018-05-02T16:27:23.316Z,94410.55
2018-05-02T16:29:56.524Z,94403.08
2018-05-02T16:32:30.561Z,94410.50
2018-05-02T16:35:03.821Z,94416.22
2018-05-02T16:37:37.112Z,94416.28
2018-05-02T16:40:10.374Z,94418.84
2018-05-02T16:42:43.648Z,94421.53
2018-05-02T16:45:16.908Z,94419.98
2018-05-02T16:47:50.206Z,94418.00
2018-05-02T16:50:23.456Z,94420.33
2018-05-02T16:52:56.729Z,94418.84
2018-05-02T16:55:29.988Z,94420.05
2018-05-02T16:58:04.029Z,94422.27
2018-05-02T17:00:37.385Z,94423.06
2018-05-02T17:03:11.615Z,94421.08
2018-05-02T17:05:44.896Z,94410.57
2018-05-02T17:08:18.278Z,94410.94
2018-05-02T17:10:51.547Z,94417.98
2018-05-02T17:13:24.821Z,94420.53
2018-05-02T17:15:58.088Z,94417.17
2018-05-02T17:18:31.364Z,94420.69
2018-05-02T17:21:04.660Z,94424.03
2018-05-02T17:23:37.908Z,94436.56
2018-05-02T17:26:11.204Z,94435.99
2018-05-02T17:28:44.457Z,94438.37
2018-05-02T17:31:18.497Z,94438.64
2018-05-02T17:33:52.644Z,94439.20
2018-05-02T17:36:25.932Z,94443.12
2018-05-02T17:38:59.194Z,94438.22
2018-05-02T17:41:32.452Z,94442.90
2018-05-02T17:44:06.489Z,94448.83
2018-05-02T17:46:39.768Z,94449.77
2018-05-02T17:49:13.787Z,94445.76
2018-05-02T17:51:47.067Z,94446.02
2018-05-02T17:54:21.092Z,94451.27
2018-05-02T17:56:54.358Z,94455.13
2018-05-02T17:59:27.619Z,94456.59
2018-05-02T18:02:00.900Z,94455.73
2018-05-02T18:04:34.208Z,94466.75
2018-05-02T18:07:07.497Z,94462.03
2018-05-02T18:09:40.749Z,94464.27
2018-05-02T18:12:14.790Z,94466.41
2018-05-02T18:14:48.048Z,94471.02
2018-05-02T18:17:21.325Z,94465.03
2018-05-02T18:19:54.589Z,94459.19
2018-05-02T18:22:27.860Z,94465.50
2018-05-02T18:25:01.122Z,94459.45
2018-05-02T18:27:35.166Z,94460.10
2018-05-02T18:30:08.443Z,94459.77
2018-05-02T18:32:41.751Z,94468.43
2018-05-02T18:35:15.006Z,94463.95
2018-05-02T18:37:59.089Z,94465.69
2018-05-02T18:40:32.347Z,94466.57
2018-05-02T18:43:05.619Z,94474.90
2018-05-02T18:45:38.895Z,94473.81
2018-05-02T18:48:12.172Z,94476.08
2018-05-02T18:50:45.430Z,94481.98
2018-05-02T18:53:19.553Z,94487.14
2018-05-02T18:55:52.750Z,94493.18
2018-05-02T18:58:26.056Z,94492.61
2018-05-02T19:01:00.278Z,94498.80
2018-05-02T19:03:33.528Z,94508.70
2018-05-02T19:06:06.808Z,94514.89
2018-05-02T19:08:40.110Z,94518.01
2018-05-02T19:11:13.394Z,94526.05
2018-05-02T19:13:52.298Z,94531.95
2018-05-02T19:16:25.576Z,94529.01
2018-05-02T19:19:04.373Z,94529.14
2018-05-02T19:21:38.425Z,94525.53
2018-05-02T19:24:11.673Z,94528.59
2018-05-02T19:26:44.949Z,94524.27
2018-05-02T19:29:18.208Z,94531.95
2018-05-02T19:31:57.031Z,94529.97
2018-05-02T19:34:30.288Z,94527.08
2018-05-02T19:37:04.384Z,94534.66
2018-05-02T19:42:41.158Z,94546.88
2018-05-02T19:45:14.394Z,94546.19
2018-05-02T19:47:48.427Z,94545.25
2018-05-02T19:50:21.729Z,94551.91
2018-05-02T19:52:54.997Z,94563.95
2018-05-02T19:55:28.303Z,94570.76
2018-05-02T19:58:02.546Z,94575.13
2018-05-02T20:00:41.271Z,94578.34
2018-05-02T20:03:14.544Z,94579.80
2018-05-02T20:05:47.820Z,94576.09
2018-05-02T20:08:27.339Z,94574.81
2018-05-02T20:11:06.200Z,94582.89
2018-05-02T20:13:45.095Z,94578.34
2018-05-02T20:16:18.345Z,94579.19
2018-05-02T20:18:51.611Z,94584.30
2018-05-02T20:21:24.920Z,94584.95
2018-05-02T20:23:58.172Z,94583.17
2018-05-02T20:26:32.213Z,94576.59
2018-05-02T20:29:05.478Z,94579.90
2018-05-02T20:31:39.551Z,94586.42
2018-05-02T20:34:12.966Z,94578.70
2018-05-02T20:36:46.337Z,94576.79
2018-05-02T20:39:19.608Z,94574.68
2018-05-02T20:41:52.931Z,94564.70
2018-05-02T20:44:26.167Z,94566.87
2018-05-02T20:47:00.212Z,94565.72
2018-05-02T20:49:33.464Z,94575.23
2018-05-02T20:52:07.524Z,94569.59
2018-05-02T20:54:40.788Z,94573.18
2018-05-02T20:57:15.002Z,94560.93
2018-05-02T20:59:49.027Z,94556.36
2018-05-02T21:02:22.312Z,94552.83
2018-05-02T21:04:55.575Z,94544.92
2018-05-02T21:07:28.867Z,94543.09
2018-05-02T21:10:02.126Z,94543.75
2018-05-02T21:12:35.406Z,94528.73
2018-05-02T21:15:08.659Z,94525.05
2018-05-02T21:17:41.957Z,94522.34
2018-05-02T21:20:15.212Z,94515.89
2018-05-02T21:22:48.504Z,94523.92
2018-05-02T21:25:22.581Z,94517.96
2018-05-02T21:27:55.863Z,94510.79
2018-05-02T21:30:29.890Z,94518.45
2018-05-02T21:33:03.163Z,94517.02
2018-05-02T21:35:37.202Z,94524.45
2018-05-02T21:38:10.476Z,94524.29
2018-05-02T21:40:44.584Z,94538.53
2018-05-02T21:43:17.782Z,94541.00
2018-05-02T21:45:51.806Z,94555.38
2018-05-02T21:48:25.102Z,94562.92
2018-05-02T21:50:58.360Z,94557.28
2018-05-02T21:53:31.629Z,94555.17
2018-05-02T21:56:04.891Z,94560.77
2018-05-02T21:58:38.172Z,94563.05
2018-05-02T22:01:11.432Z,94563.11
2018-05-02T22:03:44.708Z,94555.20
2018-05-02T22:06:17.963Z,94555.39
2018-05-02T22:08:51.243Z,94554.78
2018-05-02T22:11:24.508Z,94542.36
2018-05-02T22:13:57.776Z,94549.00
2018-05-02T22:16:31.113Z,94550.12
2018-05-02T22:19:04.387Z,94546.09
2018-05-02T22:21:37.648Z,94554.70
2018-05-02T22:24:10.921Z,94564.78
2018-05-02T22:26:44.175Z,94564.08
2018-05-02T22:29:17.475Z,94571.70
2018-05-02T22:31:50.736Z,94587.23
2018-05-02T22:34:24.010Z,94599.80
2018-05-02T22:36:57.267Z,94605.97
2018-05-02T22:39:30.552Z,94614.69
2018-05-02T22:42:03.812Z,94618.11
2018-05-02T22:44:37.853Z,94621.31
2018-05-02T22:47:11.118Z,94615.89
2018-05-02T22:49:44.396Z,94625.92
2018-05-02T22:52:17.643Z,94635.81
2018-05-02T22:54:51.683Z,94644.19
2018-05-02T22:57:24.939Z,94638.39
2018-05-02T22:59:58.212Z,94625.21
2018-05-02T23:02:31.488Z,94622.01
2018-05-02T23:05:04.739Z,94619.11
2018-05-02T23:07:37.992Z,94629.07
2018-05-02T23:10:11.269Z,94629.22
2018-05-02T23:12:44.638Z,94626.66
